sensor_id;sensor_type;location;lat;lon;timestamp;temperature;humidity
75819;DHT22;64453;51.944;9.796;2022-12-18T00:02:22;-4.60;46.50
75819;DHT22;64453;51.944;9.796;2022-12-18T00:04:49;-4.50;46.20
75819;DHT22;64453;51.944;9.796;2022-12-18T00:07:16;-4.60;45.50
75819;DHT22;64453;51.944;9.796;2022-12-18T00:09:43;-4.50;45.70
75819;DHT22;64453;51.944;9.796;2022-12-18T00:12:10;-4.70;46.30
75819;DHT22;64453;51.944;9.796;2022-12-18T00:14:38;-4.70;46.60
75819;DHT22;64453;51.944;9.796;2022-12-18T00:17:05;-4.70;46.20
75819;DHT22;64453;51.944;9.796;2022-12-18T00:19:32;-4.80;45.80
75819;DHT22;64453;51.944;9.796;2022-12-18T00:21:59;-5.20;46.60
75819;DHT22;64453;51.944;9.796;2022-12-18T00:24:26;-5.10;46.70
75819;DHT22;64453;51.944;9.796;2022-12-18T00:26:53;-4.90;46.70
75819;DHT22;64453;51.944;9.796;2022-12-18T00:29:20;-4.80;46.60
75819;DHT22;64453;51.944;9.796;2022-12-18T00:31:48;-4.60;47.00
75819;DHT22;64453;51.944;9.796;2022-12-18T00:34:15;-4.50;45.90
75819;DHT22;64453;51.944;9.796;2022-12-18T00:36:42;-4.80;45.30
75819;DHT22;64453;51.944;9.796;2022-12-18T00:39:10;-4.90;45.50
75819;DHT22;64453;51.944;9.796;2022-12-18T00:41:37;-5.00;45.50
75819;DHT22;64453;51.944;9.796;2022-12-18T00:44:22;-5.50;46.60
75819;DHT22;64453;51.944;9.796;2022-12-18T00:46:50;-5.30;46.30
75819;DHT22;64453;51.944;9.796;2022-12-18T00:49:18;-5.50;47.10
75819;DHT22;64453;51.944;9.796;2022-12-18T00:51:46;-5.30;47.60
75819;DHT22;64453;51.944;9.796;2022-12-18T00:54:13;-5.00;47.20
75819;DHT22;64453;51.944;9.796;2022-12-18T00:56:41;-4.90;46.10
75819;DHT22;64453;51.944;9.796;2022-12-18T00:59:08;-4.90;46.10
75819;DHT22;64453;51.944;9.796;2022-12-18T01:01:35;-5.30;47.40
75819;DHT22;64453;51.944;9.796;2022-12-18T01:04:04;-5.70;47.90
75819;DHT22;64453;51.944;9.796;2022-12-18T01:06:32;-5.50;47.50
75819;DHT22;64453;51.944;9.796;2022-12-18T01:08:59;-5.20;47.20
75819;DHT22;64453;51.944;9.796;2022-12-18T01:11:26;-4.90;46.90
75819;DHT22;64453;51.944;9.796;2022-12-18T01:13:53;-4.70;47.00
75819;DHT22;64453;51.944;9.796;2022-12-18T01:16:21;-4.60;46.90
75819;DHT22;64453;51.944;9.796;2022-12-18T01:18:52;-4.80;45.50
75819;DHT22;64453;51.944;9.796;2022-12-18T01:21:22;-5.30;45.50
75819;DHT22;64453;51.944;9.796;2022-12-18T01:23:51;-6.20;47.50
75819;DHT22;64453;51.944;9.796;2022-12-18T01:26:19;-6.30;49.00
75819;DHT22;64453;51.944;9.796;2022-12-18T01:28:46;-6.00;49.60
75819;DHT22;64453;51.944;9.796;2022-12-18T01:31:17;-5.50;48.90
75819;DHT22;64453;51.944;9.796;2022-12-18T01:33:45;-5.60;48.20
75819;DHT22;64453;51.944;9.796;2022-12-18T01:36:17;-5.70;48.20
75819;DHT22;64453;51.944;9.796;2022-12-18T01:38:47;-5.80;49.60
75819;DHT22;64453;51.944;9.796;2022-12-18T01:41:15;-5.60;50.00
75819;DHT22;64453;51.944;9.796;2022-12-18T01:43:50;-5.70;49.70
75819;DHT22;64453;51.944;9.796;2022-12-18T01:46:19;-5.70;51.20
75819;DHT22;64453;51.944;9.796;2022-12-18T01:48:57;-5.20;49.80
75819;DHT22;64453;51.944;9.796;2022-12-18T01:51:27;-4.90;48.00
75819;DHT22;64453;51.944;9.796;2022-12-18T01:53:56;-4.80;47.10
75819;DHT22;64453;51.944;9.796;2022-12-18T01:56:23;-4.80;47.10
75819;DHT22;64453;51.944;9.796;2022-12-18T01:58:54;-4.90;46.60
75819;DHT22;64453;51.944;9.796;2022-12-18T02:01:25;-5.10;46.80
75819;DHT22;64453;51.944;9.796;2022-12-18T02:03:53;-5.20;47.50
75819;DHT22;64453;51.944;9.796;2022-12-18T02:06:23;-5.00;47.30
75819;DHT22;64453;51.944;9.796;2022-12-18T02:09:04;-4.90;46.70
75819;DHT22;64453;51.944;9.796;2022-12-18T02:11:41;-4.80;46.40
75819;DHT22;64453;51.944;9.796;2022-12-18T02:14:18;-4.80;46.10
75819;DHT22;64453;51.944;9.796;2022-12-18T02:16:52;-5.60;46.90
75819;DHT22;64453;51.944;9.796;2022-12-18T02:19:39;-5.60;48.00
75819;DHT22;64453;51.944;9.796;2022-12-18T02:22:24;-5.40;47.80
75819;DHT22;64453;51.944;9.796;2022-12-18T02:25:02;-5.10;47.90
75819;DHT22;64453;51.944;9.796;2022-12-18T02:27:40;-5.00;47.80
75819;DHT22;64453;51.944;9.796;2022-12-18T02:30:08;-4.90;46.80
75819;DHT22;64453;51.944;9.796;2022-12-18T02:32:39;-5.50;48.20
75819;DHT22;64453;51.944;9.796;2022-12-18T02:35:12;-6.00;49.60
75819;DHT22;64453;51.944;9.796;2022-12-18T02:37:42;-5.50;49.10
75819;DHT22;64453;51.944;9.796;2022-12-18T02:40:11;-5.30;48.60
75819;DHT22;64453;51.944;9.796;2022-12-18T02:42:40;-5.10;47.40
75819;DHT22;64453;51.944;9.796;2022-12-18T02:45:09;-5.10;47.30
75819;DHT22;64453;51.944;9.796;2022-12-18T02:47:39;-5.10;46.70
75819;DHT22;64453;51.944;9.796;2022-12-18T02:50:16;-5.60;47.80
75819;DHT22;64453;51.944;9.796;2022-12-18T02:52:53;-5.80;49.60
75819;DHT22;64453;51.944;9.796;2022-12-18T02:55:35;-5.90;50.10
75819;DHT22;64453;51.944;9.796;2022-12-18T02:58:15;-5.40;49.10
75819;DHT22;64453;51.944;9.796;2022-12-18T03:00:48;-5.50;49.30
75819;DHT22;64453;51.944;9.796;2022-12-18T03:03:24;-5.30;48.40
75819;DHT22;64453;51.944;9.796;2022-12-18T03:05:58;-5.60;49.40
75819;DHT22;64453;51.944;9.796;2022-12-18T03:08:30;-5.50;48.20
75819;DHT22;64453;51.944;9.796;2022-12-18T03:11:03;-5.30;47.70
75819;DHT22;64453;51.944;9.796;2022-12-18T03:13:36;-5.10;47.90
75819;DHT22;64453;51.944;9.796;2022-12-18T03:16:06;-4.90;47.50
75819;DHT22;64453;51.944;9.796;2022-12-18T03:18:39;-5.00;47.90
75819;DHT22;64453;51.944;9.796;2022-12-18T03:21:09;-5.20;47.80
75819;DHT22;64453;51.944;9.796;2022-12-18T03:23:40;-5.20;47.00
75819;DHT22;64453;51.944;9.796;2022-12-18T03:26:12;-5.50;47.30
75819;DHT22;64453;51.944;9.796;2022-12-18T03:28:46;-5.50;47.80
75819;DHT22;64453;51.944;9.796;2022-12-18T03:31:16;-5.70;47.90
75819;DHT22;64453;51.944;9.796;2022-12-18T03:37:22;-5.70;48.40
75819;DHT22;64453;51.944;9.796;2022-12-18T03:39:49;-5.50;47.80
75819;DHT22;64453;51.944;9.796;2022-12-18T03:42:25;-6.00;48.50
75819;DHT22;64453;51.944;9.796;2022-12-18T03:44:59;-6.00;48.90
75819;DHT22;64453;51.944;9.796;2022-12-18T03:47:33;-5.60;48.90
75819;DHT22;64453;51.944;9.796;2022-12-18T03:50:07;-5.30;49.10
75819;DHT22;64453;51.944;9.796;2022-12-18T03:52:45;-5.20;48.50
75819;DHT22;64453;51.944;9.796;2022-12-18T03:55:15;-5.30;48.90
75819;DHT22;64453;51.944;9.796;2022-12-18T03:57:44;-5.30;48.10
75819;DHT22;64453;51.944;9.796;2022-12-18T04:00:16;-5.60;48.50
75819;DHT22;64453;51.944;9.796;2022-12-18T04:02:49;-5.30;49.20
75819;DHT22;64453;51.944;9.796;2022-12-18T04:05:19;-5.20;49.00
75819;DHT22;64453;51.944;9.796;2022-12-18T04:07:48;-5.10;47.80
75819;DHT22;64453;51.944;9.796;2022-12-18T04:10:16;-5.30;47.60
75819;DHT22;64453;51.944;9.796;2022-12-18T04:12:43;-5.30;46.90
75819;DHT22;64453;51.944;9.796;2022-12-18T04:15:11;-5.40;48.00
75819;DHT22;64453;51.944;9.796;2022-12-18T04:17:46;-5.30;47.50
75819;DHT22;64453;51.944;9.796;2022-12-18T04:20:14;-5.40;47.80
75819;DHT22;64453;51.944;9.796;2022-12-18T04:22:42;-5.30;48.30
75819;DHT22;64453;51.944;9.796;2022-12-18T04:25:09;-5.30;48.10
75819;DHT22;64453;51.944;9.796;2022-12-18T04:27:36;-5.30;47.40
75819;DHT22;64453;51.944;9.796;2022-12-18T04:30:04;-5.80;49.00
75819;DHT22;64453;51.944;9.796;2022-12-18T04:32:33;-5.50;48.50
75819;DHT22;64453;51.944;9.796;2022-12-18T04:35:01;-5.40;48.60
75819;DHT22;64453;51.944;9.796;2022-12-18T04:37:29;-5.70;49.10
75819;DHT22;64453;51.944;9.796;2022-12-18T04:39:56;-5.50;48.70
75819;DHT22;64453;51.944;9.796;2022-12-18T04:42:23;-5.50;48.00
75819;DHT22;64453;51.944;9.796;2022-12-18T04:44:50;-5.80;48.90
75819;DHT22;64453;51.944;9.796;2022-12-18T04:47:17;-5.90;49.40
75819;DHT22;64453;51.944;9.796;2022-12-18T04:49:44;-5.70;50.50
75819;DHT22;64453;51.944;9.796;2022-12-18T04:52:12;-5.80;49.40
75819;DHT22;64453;51.944;9.796;2022-12-18T04:54:39;-5.70;49.70
75819;DHT22;64453;51.944;9.796;2022-12-18T04:57:06;-5.90;50.10
75819;DHT22;64453;51.944;9.796;2022-12-18T04:59:33;-5.80;50.30
75819;DHT22;64453;51.944;9.796;2022-12-18T05:02:00;-5.90;49.70
75819;DHT22;64453;51.944;9.796;2022-12-18T05:04:27;-5.60;49.40
75819;DHT22;64453;51.944;9.796;2022-12-18T05:06:54;-5.40;48.60
75819;DHT22;64453;51.944;9.796;2022-12-18T05:09:22;-5.50;48.20
75819;DHT22;64453;51.944;9.796;2022-12-18T05:11:49;-5.50;48.50
75819;DHT22;64453;51.944;9.796;2022-12-18T05:14:17;-5.60;49.00
75819;DHT22;64453;51.944;9.796;2022-12-18T05:16:43;-5.60;49.60
75819;DHT22;64453;51.944;9.796;2022-12-18T05:19:10;-5.90;50.30
75819;DHT22;64453;51.944;9.796;2022-12-18T05:21:37;-5.90;51.30
75819;DHT22;64453;51.944;9.796;2022-12-18T05:24:05;-5.70;50.60
75819;DHT22;64453;51.944;9.796;2022-12-18T05:26:34;-6.00;50.30
75819;DHT22;64453;51.944;9.796;2022-12-18T05:29:01;-6.00;49.90
75819;DHT22;64453;51.944;9.796;2022-12-18T05:31:28;-5.70;49.90
75819;DHT22;64453;51.944;9.796;2022-12-18T05:33:55;-5.40;49.30
75819;DHT22;64453;51.944;9.796;2022-12-18T05:36:21;-5.70;50.70
75819;DHT22;64453;51.944;9.796;2022-12-18T05:38:48;-5.60;50.90
75819;DHT22;64453;51.944;9.796;2022-12-18T05:41:15;-5.20;50.50
75819;DHT22;64453;51.944;9.796;2022-12-18T05:43:44;-5.10;49.20
75819;DHT22;64453;51.944;9.796;2022-12-18T05:46:13;-5.10;49.30
75819;DHT22;64453;51.944;9.796;2022-12-18T05:48:41;-4.90;49.10
75819;DHT22;64453;51.944;9.796;2022-12-18T05:51:10;-4.90;48.30
75819;DHT22;64453;51.944;9.796;2022-12-18T05:53:38;-5.20;48.20
75819;DHT22;64453;51.944;9.796;2022-12-18T05:56:08;-5.50;48.70
75819;DHT22;64453;51.944;9.796;2022-12-18T05:58:36;-5.70;49.70
75819;DHT22;64453;51.944;9.796;2022-12-18T06:01:09;-5.40;48.60
75819;DHT22;64453;51.944;9.796;2022-12-18T06:03:39;-5.20;48.30
75819;DHT22;64453;51.944;9.796;2022-12-18T06:06:13;-5.10;47.30
75819;DHT22;64453;51.944;9.796;2022-12-18T06:08:41;-5.30;47.10
75819;DHT22;64453;51.944;9.796;2022-12-18T06:11:08;-5.20;47.70
75819;DHT22;64453;51.944;9.796;2022-12-18T06:13:35;-5.20;47.30
75819;DHT22;64453;51.944;9.796;2022-12-18T06:16:02;-5.20;46.50
75819;DHT22;64453;51.944;9.796;2022-12-18T06:18:31;-5.50;46.90
75819;DHT22;64453;51.944;9.796;2022-12-18T06:20:59;-5.50;46.80
75819;DHT22;64453;51.944;9.796;2022-12-18T06:23:27;-5.90;48.00
75819;DHT22;64453;51.944;9.796;2022-12-18T06:25:54;-5.70;47.30
75819;DHT22;64453;51.944;9.796;2022-12-18T06:28:21;-5.60;47.40
75819;DHT22;64453;51.944;9.796;2022-12-18T06:30:49;-5.40;47.20
75819;DHT22;64453;51.944;9.796;2022-12-18T06:33:17;-5.30;46.50
75819;DHT22;64453;51.944;9.796;2022-12-18T06:35:45;-5.40;45.80
75819;DHT22;64453;51.944;9.796;2022-12-18T06:38:12;-5.60;46.20
75819;DHT22;64453;51.944;9.796;2022-12-18T06:40:39;-5.80;47.50
75819;DHT22;64453;51.944;9.796;2022-12-18T06:43:07;-5.80;47.10
75819;DHT22;64453;51.944;9.796;2022-12-18T06:45:35;-6.00;46.80
75819;DHT22;64453;51.944;9.796;2022-12-18T06:48:02;-6.00;47.40
75819;DHT22;64453;51.944;9.796;2022-12-18T06:50:29;-5.80;47.30
75819;DHT22;64453;51.944;9.796;2022-12-18T06:52:57;-6.00;46.90
75819;DHT22;64453;51.944;9.796;2022-12-18T06:55:24;-5.90;47.30
75819;DHT22;64453;51.944;9.796;2022-12-18T06:57:51;-5.70;46.70
75819;DHT22;64453;51.944;9.796;2022-12-18T07:00:18;-6.10;47.80
75819;DHT22;64453;51.944;9.796;2022-12-18T07:02:45;-6.20;47.70
75819;DHT22;64453;51.944;9.796;2022-12-18T07:05:12;-5.90;47.70
75819;DHT22;64453;51.944;9.796;2022-12-18T07:07:39;-5.80;47.50
75819;DHT22;64453;51.944;9.796;2022-12-18T07:10:08;-5.90;47.10
75819;DHT22;64453;51.944;9.796;2022-12-18T07:12:35;-6.00;47.40
75819;DHT22;64453;51.944;9.796;2022-12-18T07:15:03;-5.90;47.60
75819;DHT22;64453;51.944;9.796;2022-12-18T07:17:31;-6.10;47.30
75819;DHT22;64453;51.944;9.796;2022-12-18T07:19:58;-6.20;48.40
75819;DHT22;64453;51.944;9.796;2022-12-18T07:22:25;-6.20;49.20
75819;DHT22;64453;51.944;9.796;2022-12-18T07:24:52;-6.10;48.40
75819;DHT22;64453;51.944;9.796;2022-12-18T07:27:20;-5.90;47.60
75819;DHT22;64453;51.944;9.796;2022-12-18T07:29:48;-5.70;47.60
75819;DHT22;64453;51.944;9.796;2022-12-18T07:32:15;-5.60;47.50
75819;DHT22;64453;51.944;9.796;2022-12-18T07:34:42;-5.40;46.70
75819;DHT22;64453;51.944;9.796;2022-12-18T07:37:09;-5.40;46.60
75819;DHT22;64453;51.944;9.796;2022-12-18T07:39:36;-5.70;47.50
75819;DHT22;64453;51.944;9.796;2022-12-18T07:42:03;-5.50;47.20
75819;DHT22;64453;51.944;9.796;2022-12-18T07:44:49;-5.20;47.20
75819;DHT22;64453;51.944;9.796;2022-12-18T07:47:16;-5.20;46.20
75819;DHT22;64453;51.944;9.796;2022-12-18T07:49:43;-5.30;46.90
75819;DHT22;64453;51.944;9.796;2022-12-18T07:52:10;-5.20;46.60
75819;DHT22;64453;51.944;9.796;2022-12-18T07:54:38;-5.20;46.90
75819;DHT22;64453;51.944;9.796;2022-12-18T07:57:05;-5.10;46.70
75819;DHT22;64453;51.944;9.796;2022-12-18T07:59:32;-5.00;46.30
75819;DHT22;64453;51.944;9.796;2022-12-18T08:02:01;-5.00;46.10
75819;DHT22;64453;51.944;9.796;2022-12-18T08:04:28;-4.90;46.20
75819;DHT22;64453;51.944;9.796;2022-12-18T08:06:54;-4.80;46.30
75819;DHT22;64453;51.944;9.796;2022-12-18T08:09:22;-4.80;47.20
75819;DHT22;64453;51.944;9.796;2022-12-18T08:11:49;-4.70;47.20
75819;DHT22;64453;51.944;9.796;2022-12-18T08:14:17;-4.70;46.80
75819;DHT22;64453;51.944;9.796;2022-12-18T08:16:44;-4.70;46.80
75819;DHT22;64453;51.944;9.796;2022-12-18T08:19:12;-4.80;47.30
75819;DHT22;64453;51.944;9.796;2022-12-18T08:21:39;-4.80;47.80
75819;DHT22;64453;51.944;9.796;2022-12-18T08:24:06;-4.70;47.30
75819;DHT22;64453;51.944;9.796;2022-12-18T08:26:35;-4.70;47.90
75819;DHT22;64453;51.944;9.796;2022-12-18T08:29:02;-4.50;47.60
75819;DHT22;64453;51.944;9.796;2022-12-18T08:31:30;-4.50;48.10
75819;DHT22;64453;51.944;9.796;2022-12-18T08:33:58;-4.30;48.70
75819;DHT22;64453;51.944;9.796;2022-12-18T08:36:26;-4.20;48.60
75819;DHT22;64453;51.944;9.796;2022-12-18T08:38:54;-4.10;48.50
75819;DHT22;64453;51.944;9.796;2022-12-18T08:41:21;-4.00;48.50
75819;DHT22;64453;51.944;9.796;2022-12-18T08:43:48;-3.80;49.00
75819;DHT22;64453;51.944;9.796;2022-12-18T08:46:35;-3.70;49.10
75819;DHT22;64453;51.944;9.796;2022-12-18T08:49:04;-3.60;49.50
75819;DHT22;64453;51.944;9.796;2022-12-18T08:51:33;-3.50;49.60
75819;DHT22;64453;51.944;9.796;2022-12-18T08:54:00;-3.60;50.70
75819;DHT22;64453;51.944;9.796;2022-12-18T08:56:28;-3.40;50.50
75819;DHT22;64453;51.944;9.796;2022-12-18T08:58:55;-3.30;51.70
75819;DHT22;64453;51.944;9.796;2022-12-18T09:01:23;-3.30;51.40
75819;DHT22;64453;51.944;9.796;2022-12-18T09:03:51;-3.20;51.70
75819;DHT22;64453;51.944;9.796;2022-12-18T09:06:19;-3.20;52.20
75819;DHT22;64453;51.944;9.796;2022-12-18T09:08:48;-3.10;52.00
75819;DHT22;64453;51.944;9.796;2022-12-18T09:11:20;-2.90;51.60
75819;DHT22;64453;51.944;9.796;2022-12-18T09:13:49;-2.80;51.50
75819;DHT22;64453;51.944;9.796;2022-12-18T09:16:16;-2.70;51.20
75819;DHT22;64453;51.944;9.796;2022-12-18T09:18:45;-2.60;51.30
75819;DHT22;64453;51.944;9.796;2022-12-18T09:21:13;-2.60;51.20
75819;DHT22;64453;51.944;9.796;2022-12-18T09:23:42;-2.50;51.30
75819;DHT22;64453;51.944;9.796;2022-12-18T09:26:10;-2.40;51.60
75819;DHT22;64453;51.944;9.796;2022-12-18T09:28:38;-2.30;51.80
75819;DHT22;64453;51.944;9.796;2022-12-18T09:31:06;-2.20;51.90
75819;DHT22;64453;51.944;9.796;2022-12-18T09:33:34;-2.10;52.10
75819;DHT22;64453;51.944;9.796;2022-12-18T09:36:04;-2.10;52.30
75819;DHT22;64453;51.944;9.796;2022-12-18T09:38:34;-1.90;52.40
75819;DHT22;64453;51.944;9.796;2022-12-18T09:41:05;-1.80;52.90
75819;DHT22;64453;51.944;9.796;2022-12-18T09:43:45;-1.70;53.30
75819;DHT22;64453;51.944;9.796;2022-12-18T09:46:17;-1.60;53.20
75819;DHT22;64453;51.944;9.796;2022-12-18T09:48:49;-1.50;53.40
75819;DHT22;64453;51.944;9.796;2022-12-18T09:51:20;-1.40;53.50
75819;DHT22;64453;51.944;9.796;2022-12-18T09:53:52;-1.20;53.80
75819;DHT22;64453;51.944;9.796;2022-12-18T09:56:22;-1.10;53.40
75819;DHT22;64453;51.944;9.796;2022-12-18T09:58:57;-1.00;53.40
75819;DHT22;64453;51.944;9.796;2022-12-18T10:01:26;-0.90;53.40
75819;DHT22;64453;51.944;9.796;2022-12-18T10:03:54;-0.80;53.80
75819;DHT22;64453;51.944;9.796;2022-12-18T10:06:25;-0.70;53.60
75819;DHT22;64453;51.944;9.796;2022-12-18T10:09:01;-0.60;53.20
75819;DHT22;64453;51.944;9.796;2022-12-18T10:11:38;-0.50;53.30
75819;DHT22;64453;51.944;9.796;2022-12-18T10:14:15;-0.50;53.20
75819;DHT22;64453;51.944;9.796;2022-12-18T10:16:55;-0.50;53.30
75819;DHT22;64453;51.944;9.796;2022-12-18T10:19:36;-0.40;53.40
75819;DHT22;64453;51.944;9.796;2022-12-18T10:22:15;-0.30;53.40
75819;DHT22;64453;51.944;9.796;2022-12-18T10:24:58;-0.30;53.10
75819;DHT22;64453;51.944;9.796;2022-12-18T10:27:28;-0.20;53.30
75819;DHT22;64453;51.944;9.796;2022-12-18T10:29:58;-0.20;53.50
75819;DHT22;64453;51.944;9.796;2022-12-18T10:32:26;-0.10;53.40
75819;DHT22;64453;51.944;9.796;2022-12-18T10:34:56;0.10;53.50
75819;DHT22;64453;51.944;9.796;2022-12-18T10:37:25;0.10;53.40
75819;DHT22;64453;51.944;9.796;2022-12-18T10:40:11;0.20;53.20
75819;DHT22;64453;51.944;9.796;2022-12-18T10:42:40;0.40;53.10
75819;DHT22;64453;51.944;9.796;2022-12-18T10:45:13;0.30;53.10
75819;DHT22;64453;51.944;9.796;2022-12-18T10:47:43;0.40;53.10
75819;DHT22;64453;51.944;9.796;2022-12-18T10:50:22;0.50;52.70
75819;DHT22;64453;51.944;9.796;2022-12-18T10:52:57;0.60;53.00
75819;DHT22;64453;51.944;9.796;2022-12-18T10:55:29;0.60;52.60
75819;DHT22;64453;51.944;9.796;2022-12-18T10:58:15;0.70;52.60
75819;DHT22;64453;51.944;9.796;2022-12-18T11:01:03;0.90;52.60
75819;DHT22;64453;51.944;9.796;2022-12-18T11:03:33;0.90;52.40
75819;DHT22;64453;51.944;9.796;2022-12-18T11:06:04;1.00;52.30
75819;DHT22;64453;51.944;9.796;2022-12-18T11:08:33;1.00;52.30
75819;DHT22;64453;51.944;9.796;2022-12-18T11:11:00;1.10;52.50
75819;DHT22;64453;51.944;9.796;2022-12-18T11:13:29;1.10;52.00
75819;DHT22;64453;51.944;9.796;2022-12-18T11:15:58;1.20;52.10
75819;DHT22;64453;51.944;9.796;2022-12-18T11:18:28;1.30;51.90
75819;DHT22;64453;51.944;9.796;2022-12-18T11:20:58;1.30;52.10
75819;DHT22;64453;51.944;9.796;2022-12-18T11:23:27;1.30;52.10
75819;DHT22;64453;51.944;9.796;2022-12-18T11:25:56;1.30;52.10
75819;DHT22;64453;51.944;9.796;2022-12-18T11:28:27;1.40;52.00
75819;DHT22;64453;51.944;9.796;2022-12-18T11:31:17;1.40;52.10
75819;DHT22;64453;51.944;9.796;2022-12-18T11:33:52;1.50;52.00
75819;DHT22;64453;51.944;9.796;2022-12-18T11:36:23;1.50;52.10
75819;DHT22;64453;51.944;9.796;2022-12-18T11:38:52;1.50;52.00
75819;DHT22;64453;51.944;9.796;2022-12-18T11:41:24;1.60;52.00
75819;DHT22;64453;51.944;9.796;2022-12-18T11:44:18;1.60;51.80
75819;DHT22;64453;51.944;9.796;2022-12-18T11:46:52;1.60;51.50
75819;DHT22;64453;51.944;9.796;2022-12-18T11:49:25;1.60;51.40
75819;DHT22;64453;51.944;9.796;2022-12-18T11:51:58;1.60;51.20
75819;DHT22;64453;51.944;9.796;2022-12-18T11:54:27;1.60;51.20
75819;DHT22;64453;51.944;9.796;2022-12-18T11:56:58;1.50;50.90
75819;DHT22;64453;51.944;9.796;2022-12-18T11:59:37;1.60;50.80
75819;DHT22;64453;51.944;9.796;2022-12-18T12:02:30;1.60;50.70
75819;DHT22;64453;51.944;9.796;2022-12-18T12:05:31;1.70;50.50
75819;DHT22;64453;51.944;9.796;2022-12-18T12:08:11;1.70;50.40
75819;DHT22;64453;51.944;9.796;2022-12-18T12:10:51;1.70;50.50
75819;DHT22;64453;51.944;9.796;2022-12-18T12:13:32;1.70;50.40
75819;DHT22;64453;51.944;9.796;2022-12-18T12:16:14;1.70;50.10
75819;DHT22;64453;51.944;9.796;2022-12-18T12:18:56;1.80;50.10
75819;DHT22;64453;51.944;9.796;2022-12-18T12:21:37;1.80;50.20
75819;DHT22;64453;51.944;9.796;2022-12-18T12:24:18;1.70;50.10
75819;DHT22;64453;51.944;9.796;2022-12-18T12:26:59;1.80;50.10
75819;DHT22;64453;51.944;9.796;2022-12-18T12:29:41;1.80;50.00
75819;DHT22;64453;51.944;9.796;2022-12-18T12:32:22;1.90;50.40
75819;DHT22;64453;51.944;9.796;2022-12-18T12:35:07;1.90;49.60
75819;DHT22;64453;51.944;9.796;2022-12-18T12:37:51;1.90;49.50
75819;DHT22;64453;51.944;9.796;2022-12-18T12:40:24;2.00;49.50
75819;DHT22;64453;51.944;9.796;2022-12-18T12:42:56;2.00;49.60
75819;DHT22;64453;51.944;9.796;2022-12-18T12:45:42;2.00;49.50
75819;DHT22;64453;51.944;9.796;2022-12-18T12:48:18;2.10;49.50
75819;DHT22;64453;51.944;9.796;2022-12-18T12:50:51;2.10;49.40
75819;DHT22;64453;51.944;9.796;2022-12-18T12:53:25;2.10;49.50
75819;DHT22;64453;51.944;9.796;2022-12-18T12:55:54;2.10;49.40
75819;DHT22;64453;51.944;9.796;2022-12-18T12:58:30;2.20;49.40
75819;DHT22;64453;51.944;9.796;2022-12-18T13:01:10;2.20;49.20
75819;DHT22;64453;51.944;9.796;2022-12-18T13:03:46;2.20;49.00
75819;DHT22;64453;51.944;9.796;2022-12-18T13:06:34;2.20;49.30
75819;DHT22;64453;51.944;9.796;2022-12-18T13:09:06;2.20;49.20
75819;DHT22;64453;51.944;9.796;2022-12-18T13:11:38;2.10;49.40
75819;DHT22;64453;51.944;9.796;2022-12-18T13:14:28;2.10;49.40
75819;DHT22;64453;51.944;9.796;2022-12-18T13:17:15;2.10;49.50
75819;DHT22;64453;51.944;9.796;2022-12-18T13:20:06;2.10;49.80
75819;DHT22;64453;51.944;9.796;2022-12-18T13:22:38;2.10;49.70
75819;DHT22;64453;51.944;9.796;2022-12-18T13:25:31;2.00;49.50
75819;DHT22;64453;51.944;9.796;2022-12-18T13:28:08;2.20;49.40
75819;DHT22;64453;51.944;9.796;2022-12-18T13:30:51;2.20;49.30
75819;DHT22;64453;51.944;9.796;2022-12-18T13:33:49;2.20;49.00
75819;DHT22;64453;51.944;9.796;2022-12-18T13:36:27;2.30;48.70
75819;DHT22;64453;51.944;9.796;2022-12-18T13:39:24;2.30;48.70
75819;DHT22;64453;51.944;9.796;2022-12-18T13:42:31;2.30;48.60
75819;DHT22;64453;51.944;9.796;2022-12-18T13:45:42;2.30;48.20
75819;DHT22;64453;51.944;9.796;2022-12-18T13:48:22;2.30;48.20
75819;DHT22;64453;51.944;9.796;2022-12-18T13:50:53;2.30;47.30
75819;DHT22;64453;51.944;9.796;2022-12-18T13:53:26;2.40;47.40
75819;DHT22;64453;51.944;9.796;2022-12-18T13:55:56;2.40;47.70
75819;DHT22;64453;51.944;9.796;2022-12-18T13:58:24;2.40;47.60
75819;DHT22;64453;51.944;9.796;2022-12-18T14:00:51;2.40;47.90
75819;DHT22;64453;51.944;9.796;2022-12-18T14:03:21;2.40;47.90
75819;DHT22;64453;51.944;9.796;2022-12-18T14:05:55;2.40;48.00
75819;DHT22;64453;51.944;9.796;2022-12-18T14:08:29;2.40;47.20
75819;DHT22;64453;51.944;9.796;2022-12-18T14:11:01;2.30;47.60
75819;DHT22;64453;51.944;9.796;2022-12-18T14:13:32;2.40;47.30
75819;DHT22;64453;51.944;9.796;2022-12-18T14:16:01;2.40;47.40
75819;DHT22;64453;51.944;9.796;2022-12-18T14:18:37;2.50;47.20
75819;DHT22;64453;51.944;9.796;2022-12-18T14:21:17;2.40;47.20
75819;DHT22;64453;51.944;9.796;2022-12-18T14:23:46;2.40;47.10
75819;DHT22;64453;51.944;9.796;2022-12-18T14:26:23;2.40;47.10
75819;DHT22;64453;51.944;9.796;2022-12-18T14:28:54;2.40;47.20
75819;DHT22;64453;51.944;9.796;2022-12-18T14:31:22;2.40;47.50
75819;DHT22;64453;51.944;9.796;2022-12-18T14:33:51;2.40;46.90
75819;DHT22;64453;51.944;9.796;2022-12-18T14:36:20;2.50;46.60
75819;DHT22;64453;51.944;9.796;2022-12-18T14:38:50;2.50;46.80
75819;DHT22;64453;51.944;9.796;2022-12-18T14:41:21;2.50;46.50
75819;DHT22;64453;51.944;9.796;2022-12-18T14:43:51;2.50;46.60
75819;DHT22;64453;51.944;9.796;2022-12-18T14:46:28;2.50;46.40
75819;DHT22;64453;51.944;9.796;2022-12-18T14:48:59;2.50;46.50
75819;DHT22;64453;51.944;9.796;2022-12-18T14:51:30;2.50;46.20
75819;DHT22;64453;51.944;9.796;2022-12-18T14:53:59;2.50;46.10
75819;DHT22;64453;51.944;9.796;2022-12-18T14:56:30;2.50;45.80
75819;DHT22;64453;51.944;9.796;2022-12-18T14:58:59;2.60;46.00
75819;DHT22;64453;51.944;9.796;2022-12-18T15:01:29;2.50;46.00
75819;DHT22;64453;51.944;9.796;2022-12-18T15:03:58;2.50;46.00
75819;DHT22;64453;51.944;9.796;2022-12-18T15:06:31;2.50;45.90
75819;DHT22;64453;51.944;9.796;2022-12-18T15:09:02;2.50;45.10
75819;DHT22;64453;51.944;9.796;2022-12-18T15:11:45;2.50;45.10
75819;DHT22;64453;51.944;9.796;2022-12-18T15:14:33;2.60;45.20
75819;DHT22;64453;51.944;9.796;2022-12-18T15:17:04;2.50;45.10
75819;DHT22;64453;51.944;9.796;2022-12-18T15:19:37;2.50;45.50
75819;DHT22;64453;51.944;9.796;2022-12-18T15:22:22;2.50;46.20
75819;DHT22;64453;51.944;9.796;2022-12-18T15:24:53;2.50;45.90
75819;DHT22;64453;51.944;9.796;2022-12-18T15:27:26;2.50;45.90
75819;DHT22;64453;51.944;9.796;2022-12-18T15:30:16;2.50;45.80
75819;DHT22;64453;51.944;9.796;2022-12-18T15:32:44;2.50;46.00
75819;DHT22;64453;51.944;9.796;2022-12-18T15:35:16;2.50;45.60
75819;DHT22;64453;51.944;9.796;2022-12-18T15:37:44;2.50;45.70
75819;DHT22;64453;51.944;9.796;2022-12-18T15:40:12;2.60;45.60
75819;DHT22;64453;51.944;9.796;2022-12-18T15:42:41;2.50;45.60
75819;DHT22;64453;51.944;9.796;2022-12-18T15:45:26;2.50;45.40
75819;DHT22;64453;51.944;9.796;2022-12-18T15:47:54;2.50;45.40
75819;DHT22;64453;51.944;9.796;2022-12-18T15:50:21;2.60;45.40
75819;DHT22;64453;51.944;9.796;2022-12-18T15:52:49;2.50;45.20
75819;DHT22;64453;51.944;9.796;2022-12-18T15:55:20;2.50;45.50
75819;DHT22;64453;51.944;9.796;2022-12-18T15:58:08;2.60;45.40
75819;DHT22;64453;51.944;9.796;2022-12-18T16:00:38;2.60;45.30
75819;DHT22;64453;51.944;9.796;2022-12-18T16:03:05;2.60;45.30
75819;DHT22;64453;51.944;9.796;2022-12-18T16:05:32;2.30;45.60
75819;DHT22;64453;51.944;9.796;2022-12-18T16:07:59;2.50;45.50